Bland, MO

5:26 AM CDT on August 30, 2015 (GMT -0500)
SE Owensville | | Change Station
CLOSE
Current Station
Personal Weather Station
Location: Owensville, MO
Elevation: 843 ft
Nearby Weather Stations

Elev 843 ft 38.31 °N, 91.41 °W | Updated 12 minutes ago

Partly Cloudy
Partly Cloudy
63.9 °F
Feels Like 63.9 °F
N
0.0
Wind Variable Wind from ESE

Today
High -- | Low -- °F
--% Chance of Precip.
Yesterday
High -- | Low -- °F
Precip. -- in
6:34 AM 7:39 PM
Full, 99% visible
Pressure 29.97 in
Visibility 10.0 miles
Clouds Mostly Cloudy 6000 ft
Dew Point 61 °F
Humidity 91%
Rainfall 0.00 in
Snow Depth Not available.
UV 0 out of 12
Pollen 7.50 out of 12
Air Quality Not available.
Flu Activity Not available.
METAR KVIH 300953Z AUTO 14007KT 10SM BKN060 19/18 A3000 RMK AO2 SLP149 T01890178 $
Pressure 29.97 in
Visibility 10.0 miles
Clouds Mostly Cloudy 6000 ft
Dew Point 61 °F
Humidity 91%
Rainfall 0.00 in
Snow Depth Not available.
UV 0 out of 12
Pollen 7.50 out of 12
Air Quality Not available.
Flu Activity Not available.
METAR KVIH 300953Z AUTO 14007KT 10SM BKN060 19/18 A3000 RMK AO2 SLP149 T01890178 $

10-Day Weather Forecast

×

Almanac

Astronomy

Aug. 30, 2015 Rise Set
Actual Time
Civil Twilight
Nautical Twilight
Astronomical Twilight
Moon
Length of Visible Light
Length of Day
Tomorrow will be .
, % of the Moon is Illuminated

Today's Extremes

State Highs State Lows

Community

WunderPhotos

Upload Photos

1,850,923 photos uploaded!

WunderBlogs® & News

Nearby

Air Quality

  Air Quality AQ Index Pollutant
Not available.

Snow Depth

Station Depth Elevation

Earthquake Activity

City Distance Mag. Time & Date
Minimum magnitude displayed is 2.5.

Coastal Water Temperatures

Place Temperature

Stations

Nearby Weather Stations

Station Location Temp. Windchill Dew Point Humidity Wind Precip. Elev Updated Type